createdAt,value
2019-01-31T00:00:55.651Z,99421.14
2019-01-31T00:04:02.866Z,99424.89
2019-01-31T00:07:11.485Z,99425.61
2019-01-31T00:10:13.311Z,99424.44
2019-01-31T00:13:02.840Z,99422.81
2019-01-31T00:15:44.200Z,99420.86
2019-01-31T00:18:37.425Z,99426.75
2019-01-31T00:22:05.664Z,99427.81
2019-01-31T00:25:07.694Z,99428.92
2019-01-31T00:28:15.496Z,99432.92
2019-01-31T00:31:11.149Z,99439.44
2019-01-31T00:34:47.241Z,99443.05
2019-01-31T00:37:41.587Z,99453.44
2019-01-31T00:40:30.864Z,99446.22
2019-01-31T00:44:02.178Z,99447.93
2019-01-31T00:46:43.982Z,99450.77
2019-01-31T00:49:59.502Z,99450.44
2019-01-31T00:53:19.785Z,99453.66
2019-01-31T00:56:46.269Z,99453.66
2019-01-31T01:00:06.318Z,99465.52
2019-01-31T01:03:21.910Z,99460.02
2019-01-31T01:06:34.158Z,99460.94
2019-01-31T01:09:48.462Z,99465.20
2019-01-31T01:13:23.825Z,99458.13
2019-01-31T01:16:19.879Z,99469.13
2019-01-31T01:19:04.088Z,99473.88
2019-01-31T01:22:11.189Z,99477.10
2019-01-31T01:25:33.952Z,99469.56
2019-01-31T01:28:30.703Z,99480.64
2019-01-31T01:31:43.449Z,99471.95
2019-01-31T01:35:01.318Z,99482.43
2019-01-31T01:37:55.074Z,99479.90
2019-01-31T01:40:51.943Z,99478.71
2019-01-31T01:44:02.984Z,99483.93
2019-01-31T01:47:12.443Z,99485.30
2019-01-31T01:50:37.640Z,99485.34
2019-01-31T01:53:31.430Z,99493.93
2019-01-31T01:56:30.610Z,99493.16
2019-01-31T01:59:09.530Z,99500.34
2019-01-31T02:02:27.870Z,99493.25
2019-01-31T02:05:42.097Z,99493.25
2019-01-31T02:08:39.937Z,99507.83
2019-01-31T02:11:39.117Z,99502.94
2019-01-31T02:14:43.677Z,99497.50
2019-01-31T02:17:21.194Z,99501.78
2019-01-31T02:20:15.119Z,99499.20
2019-01-31T02:23:37.445Z,99500.20
2019-01-31T02:26:44.676Z,99502.24
2019-01-31T02:29:59.895Z,99492.72
2019-01-31T02:33:04.893Z,99499.69
2019-01-31T02:36:05.040Z,99492.36
2019-01-31T02:39:15.808Z,99487.95
2019-01-31T02:42:35.669Z,99490.09
2019-01-31T02:45:41.731Z,99490.41
2019-01-31T02:48:51.871Z,99487.03
2019-01-31T02:52:24.565Z,99484.41
2019-01-31T02:55:39.215Z,99485.97
2019-01-31T02:58:20.951Z,99482.98
2019-01-31T03:01:10.768Z,99478.20
2019-01-31T03:03:53.424Z,99479.36
2019-01-31T03:06:54.535Z,99477.98
2019-01-31T03:10:20.085Z,99477.64
2019-01-31T03:13:13.117Z,99476.41
2019-01-31T03:16:10.931Z,99474.52
2019-01-31T03:19:38.376Z,99472.91
2019-01-31T03:22:46.012Z,99472.52
2019-01-31T03:26:09.459Z,99473.80
2019-01-31T03:29:21.636Z,99472.76
2019-01-31T03:32:37.183Z,99472.48
2019-01-31T03:35:40.116Z,99477.87
2019-01-31T03:38:52.345Z,99474.48
2019-01-31T03:41:55.795Z,99469.51
2019-01-31T03:44:40.206Z,99469.45
2019-01-31T03:48:03.759Z,99464.23
2019-01-31T03:50:38.998Z,99474.38
2019-01-31T03:53:45.978Z,99474.08
2019-01-31T03:56:40.658Z,99471.81
2019-01-31T03:59:29.766Z,99473.16
2019-01-31T04:02:28.429Z,99470.74
2019-01-31T04:05:21.105Z,99470.14
2019-01-31T04:07:56.370Z,99467.11
2019-01-31T04:13:06.467Z,99463.74
2019-01-31T04:15:36.781Z,99468.81
2019-01-31T04:18:07.476Z,99471.17
2019-01-31T04:20:39.837Z,99475.33
2019-01-31T04:23:17.348Z,99478.78
2019-01-31T04:25:47.892Z,99483.42
2019-01-31T04:28:18.241Z,99481.59
2019-01-31T04:30:51.804Z,99482.36
2019-01-31T04:33:24.149Z,99480.48
2019-01-31T04:35:56.115Z,99475.58
2019-01-31T04:38:26.611Z,99473.34
2019-01-31T04:40:59.468Z,99474.77
2019-01-31T04:43:43.419Z,99480.97
2019-01-31T04:46:14.417Z,99472.08
2019-01-31T04:48:44.699Z,99477.20
2019-01-31T04:51:29.999Z,99477.14
2019-01-31T04:53:53.969Z,99478.97
2019-01-31T04:56:25.432Z,99482.73
2019-01-31T04:58:56.257Z,99485.61
2019-01-31T05:01:26.809Z,99481.66
2019-01-31T05:04:07.636Z,99479.08
2019-01-31T05:06:43.933Z,99475.02
2019-01-31T05:09:14.857Z,99475.02
2019-01-31T05:11:45.198Z,99483.48
2019-01-31T05:14:17.044Z,99486.66
2019-01-31T05:16:47.697Z,99485.41
2019-01-31T05:19:36.195Z,99487.24
2019-01-31T05:22:04.054Z,99484.47
2019-01-31T05:24:34.817Z,99484.24
2019-01-31T05:27:05.111Z,99483.41
2019-01-31T05:29:37.285Z,99485.05
2019-01-31T05:32:07.613Z,99489.98
2019-01-31T05:34:52.339Z,99476.77
2019-01-31T05:37:22.662Z,99476.77
2019-01-31T05:39:53.281Z,99480.23
2019-01-31T05:42:23.736Z,99476.08
2019-01-31T05:44:54.493Z,99476.77
2019-01-31T05:47:25.115Z,99482.91
2019-01-31T05:49:55.650Z,99483.67
2019-01-31T05:52:39.737Z,99485.69
2019-01-31T05:55:12.513Z,99477.40
2019-01-31T05:57:42.944Z,99487.73
2019-01-31T06:00:21.629Z,99494.01
2019-01-31T06:02:51.968Z,99493.73
2019-01-31T06:05:27.831Z,99499.73
2019-01-31T06:08:00.888Z,99503.00
2019-01-31T06:10:33.583Z,99503.00
2019-01-31T06:13:03.566Z,99508.13
2019-01-31T06:15:34.157Z,99516.86
2019-01-31T06:18:04.932Z,99512.16
2019-01-31T06:20:39.641Z,99511.77
2019-01-31T06:23:24.714Z,99510.78
2019-01-31T06:25:55.015Z,99510.22
2019-01-31T06:28:25.387Z,99507.59
2019-01-31T06:30:55.909Z,99512.53
2019-01-31T06:33:28.523Z,99506.77
2019-01-31T06:36:07.522Z,99507.82
2019-01-31T06:38:45.398Z,99505.81
2019-01-31T06:41:18.701Z,99502.24
2019-01-31T06:43:48.467Z,99510.79
2019-01-31T06:46:21.043Z,99508.86
2019-01-31T06:49:16.955Z,99510.59
2019-01-31T06:51:37.659Z,99514.55
2019-01-31T06:54:08.379Z,99517.55
2019-01-31T06:56:38.694Z,99515.50
2019-01-31T06:59:09.359Z,99522.06
2019-01-31T07:01:39.640Z,99524.16
2019-01-31T07:04:11.100Z,99530.23
2019-01-31T07:06:52.321Z,99529.84
2019-01-31T07:09:24.441Z,99532.85
2019-01-31T07:11:56.252Z,99531.90
2019-01-31T07:14:26.842Z,99536.41
2019-01-31T07:16:57.240Z,99539.11
2019-01-31T07:19:28.005Z,99539.42
2019-01-31T07:22:01.020Z,99536.61
2019-01-31T07:24:45.181Z,99544.78
2019-01-31T07:27:12.095Z,99548.91
2019-01-31T07:29:42.534Z,99556.51
2019-01-31T07:32:12.849Z,99557.19
2019-01-31T07:34:43.449Z,99551.75
2019-01-31T07:37:14.088Z,99547.61
2019-01-31T07:39:46.542Z,99549.55
2019-01-31T07:42:25.474Z,99550.04
2019-01-31T07:44:56.033Z,99554.55
2019-01-31T07:47:27.465Z,99555.69
2019-01-31T07:49:57.877Z,99558.75
2019-01-31T07:52:28.202Z,99552.92
2019-01-31T07:55:08.154Z,99556.75
2019-01-31T07:57:48.920Z,99551.23
2019-01-31T08:00:22.285Z,99552.77
2019-01-31T08:02:53.413Z,99555.64
2019-01-31T08:05:23.864Z,99558.79
2019-01-31T08:07:56.449Z,99563.41
2019-01-31T08:10:45.743Z,99562.52
2019-01-31T08:15:47.378Z,99564.94
2019-01-31T08:18:18.101Z,99566.06
2019-01-31T08:20:48.631Z,99564.67
2019-01-31T08:23:18.937Z,99563.38
2019-01-31T08:25:54.680Z,99563.66
2019-01-31T08:28:29.839Z,99561.78
2019-01-31T08:31:00.077Z,99558.67
2019-01-31T08:33:30.764Z,99564.50
2019-01-31T08:36:01.428Z,99559.05
2019-01-31T08:38:31.726Z,99554.23
2019-01-31T08:41:02.084Z,99551.25
2019-01-31T08:43:58.212Z,99556.30
2019-01-31T08:46:08.648Z,99559.16
2019-01-31T08:48:39.287Z,99563.92
2019-01-31T08:51:09.859Z,99563.02
2019-01-31T08:53:40.291Z,99564.13
2019-01-31T08:56:10.785Z,99567.14
2019-01-31T08:58:52.474Z,99569.59
2019-01-31T09:01:21.169Z,99568.43
2019-01-31T09:03:51.823Z,99566.67
2019-01-31T09:06:22.108Z,99558.33
2019-01-31T09:08:53.606Z,99566.27
2019-01-31T09:11:24.276Z,99564.46
2019-01-31T09:14:13.758Z,99566.72
2019-01-31T09:16:36.535Z,99564.95
2019-01-31T09:19:09.253Z,99557.19
2019-01-31T09:21:50.037Z,99556.63
2019-01-31T09:25:19.617Z,99551.55
2019-01-31T09:28:41.463Z,99552.39
2019-01-31T09:32:06.638Z,99550.59
2019-01-31T09:35:11.475Z,99543.59
2019-01-31T09:38:13.537Z,99549.98
2019-01-31T09:54:31.287Z,99534.44
2019-01-31T09:57:55.037Z,99537.52
2019-01-31T10:00:27.763Z,99535.78
2019-01-31T10:03:53.286Z,99536.80
2019-01-31T10:07:10.988Z,99537.55
2019-01-31T10:10:23.739Z,99538.12
2019-01-31T10:13:21.637Z,99534.86
2019-01-31T10:16:38.672Z,99533.11
2019-01-31T10:19:34.934Z,99530.18
2019-01-31T10:22:36.236Z,99539.66
2019-01-31T10:25:46.449Z,99542.34
2019-01-31T10:29:13.137Z,99536.80
2019-01-31T10:32:20.453Z,99541.73
2019-01-31T10:35:10.528Z,99542.13
2019-01-31T10:38:03.068Z,99532.92
2019-01-31T10:41:18.577Z,99524.30
2019-01-31T10:44:36.935Z,99523.63
2019-01-31T10:48:00.675Z,99516.61
2019-01-31T10:51:07.588Z,99520.40
2019-01-31T10:54:23.559Z,99510.59
2019-01-31T10:57:30.267Z,99504.77
2019-01-31T11:00:31.778Z,99504.77
2019-01-31T11:03:30.823Z,99504.63
2019-01-31T11:06:33.634Z,99499.63
2019-01-31T11:09:40.000Z,99487.36
2019-01-31T11:12:37.089Z,99486.62
2019-01-31T11:15:32.580Z,99484.89
2019-01-31T11:18:35.482Z,99482.36
2019-01-31T11:21:53.901Z,99474.37
2019-01-31T11:25:08.139Z,99475.61
2019-01-31T11:28:02.721Z,99475.46
2019-01-31T11:31:09.273Z,99473.80
2019-01-31T11:34:33.122Z,99474.47
2019-01-31T11:37:30.196Z,99467.00
2019-01-31T11:40:28.213Z,99466.31
2019-01-31T11:43:53.275Z,99469.26
2019-01-31T11:47:02.694Z,99464.81
2019-01-31T11:49:53.439Z,99462.97
2019-01-31T11:53:03.458Z,99462.34
2019-01-31T11:55:52.309Z,99464.59
2019-01-31T11:59:01.529Z,99466.20
2019-01-31T12:01:33.439Z,99459.17
2019-01-31T12:04:10.268Z,99462.97
2019-01-31T12:06:40.662Z,99456.32
2019-01-31T12:09:43.963Z,99457.47
2019-01-31T12:12:05.213Z,99457.80
2019-01-31T12:14:39.360Z,99453.30
2019-01-31T12:17:10.027Z,99452.11
2019-01-31T12:19:41.353Z,99443.34
2019-01-31T12:22:11.804Z,99445.88
2019-01-31T12:24:58.389Z,99451.61
2019-01-31T12:27:30.369Z,99445.28
2019-01-31T12:30:01.109Z,99450.34
2019-01-31T12:32:31.458Z,99446.83
2019-01-31T12:35:02.183Z,99444.58
2019-01-31T12:37:32.553Z,99446.72
2019-01-31T12:40:37.186Z,99445.97
2019-01-31T12:42:49.461Z,99446.52
2019-01-31T12:45:20.691Z,99439.16
2019-01-31T12:47:51.088Z,99445.33
2019-01-31T12:50:29.035Z,99445.31
2019-01-31T12:52:59.476Z,99447.55
2019-01-31T12:55:40.197Z,99450.96
2019-01-31T12:58:15.222Z,99450.26
2019-01-31T13:00:45.571Z,99449.12
2019-01-31T13:03:16.195Z,99446.65
2019-01-31T13:05:47.120Z,99441.20
2019-01-31T13:08:19.679Z,99443.73
2019-01-31T13:11:15.671Z,99440.94
2019-01-31T13:13:45.706Z,99435.02
2019-01-31T13:16:04.056Z,99429.77
2019-01-31T13:18:34.551Z,99433.46
2019-01-31T13:21:05.739Z,99426.22
2019-01-31T13:23:36.389Z,99429.55
2019-01-31T13:26:12.380Z,99430.44
2019-01-31T13:28:54.553Z,99419.21
2019-01-31T13:31:24.895Z,99422.84
2019-01-31T13:33:55.556Z,99418.23
2019-01-31T13:36:25.934Z,99417.06
2019-01-31T13:38:57.069Z,99418.34
2019-01-31T13:42:01.817Z,99412.47
2019-01-31T13:44:12.674Z,99413.42
2019-01-31T13:46:43.136Z,99417.27
2019-01-31T13:49:13.947Z,99417.45
2019-01-31T13:51:44.645Z,99415.72
2019-01-31T13:54:15.326Z,99414.90
2019-01-31T13:56:51.336Z,99416.88
2019-01-31T13:59:32.426Z,99419.88
2019-01-31T14:02:01.608Z,99427.95
2019-01-31T14:04:31.999Z,99431.05
2019-01-31T14:07:02.357Z,99433.05
2019-01-31T14:09:32.693Z,99428.41
2019-01-31T14:12:03.023Z,99427.41
2019-01-31T14:15:06.087Z,99421.55
2019-01-31T14:17:25.055Z,99419.16
2019-01-31T14:19:55.644Z,99415.49
2019-01-31T14:22:26.596Z,99405.93
2019-01-31T14:24:57.395Z,99405.93
2019-01-31T14:27:27.842Z,99410.95
2019-01-31T14:29:58.400Z,99409.79
2019-01-31T14:32:29.062Z,99409.94
2019-01-31T14:35:00.663Z,99405.67
2019-01-31T14:37:51.987Z,99408.56
2019-01-31T14:40:23.292Z,99404.13
2019-01-31T14:42:56.710Z,99406.94
2019-01-31T14:45:29.946Z,99402.19
2019-01-31T14:47:59.566Z,99400.95
2019-01-31T14:50:31.822Z,99399.45
2019-01-31T14:53:04.677Z,99395.88
2019-01-31T14:55:35.052Z,99398.76
2019-01-31T14:58:21.758Z,99403.95
2019-01-31T15:00:58.929Z,99403.31
2019-01-31T15:03:29.395Z,99399.61
2019-01-31T15:05:59.876Z,99403.36
2019-01-31T15:08:30.605Z,99409.50
2019-01-31T15:11:01.107Z,99404.50
2019-01-31T15:13:31.777Z,99403.84
2019-01-31T15:16:02.179Z,99404.67
2019-01-31T15:18:32.841Z,99405.84
2019-01-31T15:21:04.098Z,99401.93
2019-01-31T15:23:46.147Z,99403.19
2019-01-31T15:26:21.927Z,99400.67
2019-01-31T15:28:52.599Z,99406.19
2019-01-31T15:31:23.311Z,99405.14
2019-01-31T15:33:54.710Z,99404.05
2019-01-31T15:36:25.076Z,99407.61
2019-01-31T15:38:55.702Z,99409.60
2019-01-31T15:41:26.345Z,99403.69
2019-01-31T15:43:57.111Z,99397.98
2019-01-31T15:46:27.555Z,99403.62
2019-01-31T15:49:09.468Z,99398.58
2019-01-31T15:51:41.559Z,99397.57
2019-01-31T15:54:12.558Z,99392.00
2019-01-31T15:56:43.123Z,99383.08
2019-01-31T15:59:13.839Z,99381.30
2019-01-31T16:01:44.799Z,99375.24
2019-01-31T16:04:15.787Z,99366.09
2019-01-31T16:06:46.363Z,99372.20
2019-01-31T16:09:16.912Z,99367.42
2019-01-31T16:12:15.407Z,99369.66
2019-01-31T16:14:54.505Z,99357.38
2019-01-31T16:17:19.188Z,99357.38
2019-01-31T16:19:49.649Z,99359.00
2019-01-31T16:22:20.275Z,99350.73
2019-01-31T16:24:50.693Z,99354.31
2019-01-31T16:27:46.487Z,99352.66
2019-01-31T16:30:17.526Z,99348.08
2019-01-31T17:25:48.505Z,99322.37
2019-01-31T17:28:19.181Z,99315.77
2019-01-31T17:30:49.558Z,99317.05
2019-01-31T17:33:24.037Z,99318.74
2019-01-31T17:36:05.148Z,99322.84
2019-01-31T17:38:38.301Z,99312.98
2019-01-31T17:41:08.683Z,99311.14
2019-01-31T17:43:39.779Z,99313.03
2019-01-31T17:46:11.722Z,99309.70
2019-01-31T17:48:43.655Z,99302.30
2019-01-31T17:51:16.308Z,99302.30
2019-01-31T17:53:58.205Z,99309.55
2019-01-31T17:56:48.008Z,99308.16
2019-01-31T17:59:19.527Z,99308.73
2019-01-31T18:01:49.814Z,99304.34
2019-01-31T18:04:20.385Z,99311.84
2019-01-31T18:06:51.494Z,99294.41
2019-01-31T18:09:21.866Z,99296.93
2019-01-31T18:11:54.240Z,99293.16
2019-01-31T18:14:39.350Z,99290.97
2019-01-31T18:17:06.666Z,99293.23
2019-01-31T18:19:37.136Z,99290.16
2019-01-31T18:22:08.842Z,99292.23
2019-01-31T18:24:39.904Z,99280.44
2019-01-31T18:27:12.213Z,99278.38
2019-01-31T18:29:42.824Z,99276.51
2019-01-31T18:32:14.409Z,99275.16
2019-01-31T18:34:49.256Z,99274.61
2019-01-31T18:37:22.554Z,99280.33
2019-01-31T18:39:52.973Z,99278.84
2019-01-31T18:42:25.265Z,99271.13
2019-01-31T18:44:55.618Z,99271.13
2019-01-31T18:47:27.720Z,99273.92
2019-01-31T18:49:58.165Z,99273.69
2019-01-31T18:52:29.132Z,99267.87
2019-01-31T18:54:59.542Z,99270.64
2019-01-31T18:57:30.115Z,99259.97
2019-01-31T19:00:00.643Z,99256.37
2019-01-31T19:02:31.418Z,99257.34
2019-01-31T19:05:06.751Z,99251.67
2019-01-31T19:07:41.393Z,99248.83
2019-01-31T19:10:16.029Z,99240.53
2019-01-31T19:12:47.062Z,99243.52
2019-01-31T19:15:18.888Z,99241.13
2019-01-31T19:17:51.204Z,99246.30
2019-01-31T19:20:30.097Z,99242.70
2019-01-31T19:23:03.878Z,99236.27
2019-01-31T19:25:34.530Z,99240.41
2019-01-31T19:28:06.570Z,99239.08
2019-01-31T19:30:38.927Z,99238.36
2019-01-31T19:33:16.790Z,99231.37
2019-01-31T19:35:49.046Z,99228.06
2019-01-31T19:38:21.825Z,99224.68
2019-01-31T19:40:57.352Z,99224.14
2019-01-31T19:43:27.704Z,99220.43
2019-01-31T19:45:58.119Z,99214.16
2019-01-31T19:48:28.444Z,99209.53
2019-01-31T19:50:58.851Z,99196.89
2019-01-31T19:53:29.344Z,99193.33
2019-01-31T19:56:10.822Z,99195.63
2019-01-31T19:58:40.233Z,99191.96
2019-01-31T20:01:10.867Z,99192.56
2019-01-31T20:03:41.305Z,99200.45
2019-01-31T20:06:14.675Z,99190.75
2019-01-31T20:08:48.960Z,99184.48
2019-01-31T20:11:22.584Z,99181.93
2019-01-31T20:14:01.055Z,99181.67
2019-01-31T20:16:31.692Z,99175.11
2019-01-31T20:19:10.450Z,99168.03
2019-01-31T20:21:42.459Z,99165.67
2019-01-31T20:24:14.856Z,99159.09
2019-01-31T20:26:46.085Z,99150.73
2019-01-31T20:29:16.634Z,99150.95
2019-01-31T20:31:51.391Z,99141.69
2019-01-31T20:34:23.520Z,99137.37
2019-01-31T20:36:55.110Z,99140.75
2019-01-31T20:39:25.711Z,99147.34
2019-01-31T20:41:56.533Z,99137.75
2019-01-31T20:44:27.009Z,99135.08
2019-01-31T20:46:57.524Z,99135.41
2019-01-31T20:49:28.065Z,99138.67
2019-01-31T20:52:00.016Z,99137.36
2019-01-31T20:54:46.339Z,99136.11
2019-01-31T20:57:18.364Z,99135.62
2019-01-31T20:59:48.879Z,99127.55
2019-01-31T21:02:29.080Z,99124.98
2019-01-31T21:04:57.950Z,99117.69
2019-01-31T21:07:28.758Z,99114.56
2019-01-31T21:09:59.839Z,99113.77
2019-01-31T21:12:31.687Z,99108.63
2019-01-31T21:15:07.143Z,99105.24
2019-01-31T21:17:39.435Z,99105.24
2019-01-31T21:20:11.126Z,99102.02
2019-01-31T21:22:42.127Z,99102.02
2019-01-31T21:25:13.091Z,99103.50
2019-01-31T21:27:45.363Z,99103.89
2019-01-31T21:30:23.468Z,99103.44
2019-01-31T21:32:59.488Z,99097.17
2019-01-31T21:35:31.794Z,99097.33
2019-01-31T21:38:02.148Z,99086.27
2019-01-31T21:40:34.322Z,99071.92
2019-01-31T21:43:06.817Z,99073.16
2019-01-31T21:45:37.635Z,99067.91
2019-01-31T21:48:10.030Z,99057.07
2019-01-31T21:50:40.502Z,99060.30
2019-01-31T21:53:11.306Z,99059.58
2019-01-31T21:56:15.428Z,99051.64
2019-01-31T21:58:22.484Z,99044.27
2019-01-31T22:00:54.965Z,99043.58
2019-01-31T22:03:26.547Z,99033.13
2019-01-31T22:05:57.219Z,99035.39
2019-01-31T22:08:43.470Z,99029.45
2019-01-31T22:11:04.177Z,99026.60
2019-01-31T22:13:34.591Z,99025.20
2019-01-31T22:16:04.993Z,99019.55
2019-01-31T22:18:35.712Z,99017.96
2019-01-31T22:21:06.472Z,99014.78
2019-01-31T22:23:37.388Z,99015.65
2019-01-31T22:26:08.124Z,99010.77
2019-01-31T22:28:46.410Z,99008.22
2019-01-31T22:31:16.893Z,99016.05
2019-01-31T22:33:47.511Z,99020.20
2019-01-31T22:36:17.952Z,99018.80
2019-01-31T22:38:49.191Z,99016.14
2019-01-31T22:41:19.613Z,99017.06
2019-01-31T22:43:50.507Z,99010.30
2019-01-31T22:46:21.437Z,99005.32
2019-01-31T22:48:56.883Z,99005.32
2019-01-31T22:51:30.119Z,98996.19
2019-01-31T22:54:01.319Z,98991.06
2019-01-31T22:56:32.031Z,98995.89
2019-01-31T22:59:02.765Z,98989.75
2019-01-31T23:01:41.454Z,98983.47
2019-01-31T23:04:15.387Z,98987.17
2019-01-31T23:06:55.605Z,98981.37
2019-01-31T23:09:27.573Z,98984.36
2019-01-31T23:11:57.966Z,98973.05
2019-01-31T23:14:29.781Z,98961.78
2019-01-31T23:17:00.232Z,98953.94
2019-01-31T23:19:36.033Z,98945.72
2019-01-31T23:22:08.038Z,98945.33
2019-01-31T23:24:39.939Z,98950.74
2019-01-31T23:27:10.368Z,98937.25
2019-01-31T23:29:42.077Z,98938.52
2019-01-31T23:32:12.715Z,98928.98
2019-01-31T23:34:43.265Z,98934.06
2019-01-31T23:37:14.754Z,98926.94
2019-01-31T23:39:46.664Z,98913.30
2019-01-31T23:42:17.095Z,98913.30
2019-01-31T23:44:49.792Z,98906.06
2019-01-31T23:47:22.962Z,98896.22
2019-01-31T23:49:55.435Z,98901.64
2019-01-31T23:52:25.791Z,98891.06
2019-01-31T23:54:56.326Z,98892.31
2019-01-31T23:57:27.317Z,98892.92
2019-01-31T23:59:58.821Z,98889.45
